createdAt,value
2022-09-22T00:01:04.980Z,9.82
2022-09-22T00:03:33.017Z,9.90
2022-09-22T00:06:11.895Z,9.82
2022-09-22T00:08:41.115Z,9.75
2022-09-22T00:11:13.786Z,9.63
2022-09-22T00:13:41.496Z,9.72
2022-09-22T00:16:10.835Z,9.65
2022-09-22T00:18:38.140Z,9.77
2022-09-22T00:21:12.367Z,9.73
2022-09-22T00:23:39.843Z,9.76
2022-09-22T00:26:09.069Z,9.60
2022-09-22T00:28:35.625Z,9.51
2022-09-22T00:31:15.170Z,9.44
2022-09-22T00:33:42.606Z,9.35
2022-09-22T00:36:10.009Z,9.23
2022-09-22T00:38:38.970Z,9.03
2022-09-22T00:41:10.958Z,9.19
2022-09-22T00:43:38.920Z,9.11
2022-09-22T00:46:08.456Z,9.12
2022-09-22T00:48:39.631Z,9.11
2022-09-22T00:51:09.462Z,8.96
2022-09-22T00:53:36.264Z,8.74
2022-09-22T00:56:09.340Z,8.91
2022-09-22T00:58:44.041Z,8.90
2022-09-22T01:01:10.973Z,8.75
2022-09-22T01:03:42.654Z,8.78
2022-09-22T01:06:12.736Z,8.64
2022-09-22T01:08:40.217Z,8.59
2022-09-22T01:11:08.049Z,8.73
2022-09-22T01:14:06.565Z,8.76
2022-09-22T01:16:53.669Z,8.79
2022-09-22T01:19:57.708Z,8.89
2022-09-22T01:22:50.707Z,8.77
2022-09-22T01:26:00.677Z,8.77
2022-09-22T01:28:48.346Z,8.84
2022-09-22T01:31:23.750Z,8.76
2022-09-22T01:34:06.130Z,8.57
2022-09-22T01:36:46.975Z,8.76
2022-09-22T01:39:29.710Z,8.68
2022-09-22T01:41:58.288Z,8.65
2022-09-22T01:44:47.616Z,8.57
2022-09-22T01:47:24.637Z,8.45
2022-09-22T01:49:55.792Z,8.47
2022-09-22T01:52:27.356Z,8.67
2022-09-22T01:55:03.402Z,8.55
2022-09-22T01:57:58.018Z,8.46
2022-09-22T02:00:25.001Z,8.21
2022-09-22T02:03:08.221Z,8.32
2022-09-22T02:05:44.961Z,8.15
2022-09-22T02:08:21.838Z,7.93
2022-09-22T02:10:49.066Z,7.99
2022-09-22T02:13:15.659Z,7.96
2022-09-22T02:16:01.682Z,7.77
2022-09-22T02:18:43.742Z,7.76
2022-09-22T02:21:10.801Z,7.78
2022-09-22T02:23:37.433Z,7.65
2022-09-22T02:26:06.766Z,7.56
2022-09-22T02:28:38.705Z,7.61
2022-09-22T02:31:24.847Z,7.57
2022-09-22T02:33:52.219Z,7.63
2022-09-22T02:36:39.060Z,7.88
2022-09-22T02:39:21.721Z,7.78
2022-09-22T02:42:10.297Z,7.85
2022-09-22T02:44:49.385Z,7.83
2022-09-22T02:47:32.680Z,7.88
2022-09-22T02:50:01.952Z,7.75
2022-09-22T02:52:28.439Z,7.53
2022-09-22T02:54:55.020Z,7.60
2022-09-22T02:57:21.982Z,7.40
2022-09-22T02:59:48.505Z,7.54
2022-09-22T03:02:15.281Z,7.71
2022-09-22T03:04:41.932Z,7.71
2022-09-22T03:07:08.537Z,7.46
2022-09-22T03:09:35.187Z,7.42
2022-09-22T03:12:01.945Z,7.28
2022-09-22T03:14:28.598Z,7.27
2022-09-22T03:16:55.215Z,7.45
2022-09-22T03:19:21.749Z,7.15
2022-09-22T03:21:48.237Z,7.16
2022-09-22T03:24:14.728Z,7.02
2022-09-22T03:26:41.291Z,6.96
2022-09-22T03:29:07.940Z,7.05
2022-09-22T03:31:34.485Z,7.13
2022-09-22T03:34:01.104Z,7.09
2022-09-22T03:36:27.623Z,7.13
2022-09-22T03:38:54.273Z,6.95
2022-09-22T03:41:20.909Z,7.06
2022-09-22T03:43:47.418Z,7.10
2022-09-22T03:46:14.426Z,7.25
2022-09-22T03:48:44.938Z,7.24
2022-09-22T03:51:12.155Z,7.30
2022-09-22T03:53:39.000Z,7.40
2022-09-22T03:56:10.286Z,7.39
2022-09-22T03:58:37.812Z,7.31
2022-09-22T04:01:06.034Z,7.21
2022-09-22T04:03:33.082Z,7.10
2022-09-22T04:06:00.431Z,7.19
2022-09-22T04:08:27.041Z,6.90
2022-09-22T04:10:54.209Z,7.07
2022-09-22T04:13:20.840Z,7.07
2022-09-22T04:15:47.367Z,7.07
2022-09-22T04:18:14.512Z,6.86
2022-09-22T04:20:43.613Z,6.97
2022-09-22T04:23:14.583Z,6.83
2022-09-22T04:25:41.181Z,6.72
2022-09-22T04:28:08.078Z,6.91
2022-09-22T04:30:35.093Z,6.93
2022-09-22T04:33:01.945Z,6.59
2022-09-22T04:35:29.057Z,6.66
2022-09-22T04:37:56.575Z,6.67
2022-09-22T04:40:24.254Z,6.86
2022-09-22T04:42:52.998Z,6.82
2022-09-22T04:45:19.547Z,6.77
2022-09-22T04:47:51.555Z,6.96
2022-09-22T04:50:20.674Z,6.91
2022-09-22T04:52:48.565Z,6.89
2022-09-22T04:55:15.630Z,6.66
2022-09-22T04:57:48.992Z,6.49
2022-09-22T05:00:16.533Z,6.68
2022-09-22T05:02:43.859Z,6.65
2022-09-22T05:05:19.504Z,6.53
2022-09-22T05:07:48.421Z,6.53
2022-09-22T05:10:17.928Z,6.51
2022-09-22T05:12:45.106Z,6.33
2022-09-22T05:15:18.400Z,6.35
2022-09-22T05:17:47.002Z,6.59
2022-09-22T05:20:14.687Z,6.57
2022-09-22T05:22:41.935Z,6.55
2022-09-22T05:25:17.506Z,6.52
2022-09-22T05:27:46.759Z,6.44
2022-09-22T05:30:13.774Z,6.49
2022-09-22T05:32:45.270Z,6.56
2022-09-22T05:35:14.222Z,6.46
2022-09-22T05:37:44.841Z,6.54
2022-09-22T05:40:12.676Z,6.65
2022-09-22T05:42:47.854Z,6.66
2022-09-22T05:45:16.289Z,6.62
2022-09-22T05:47:43.233Z,6.35
2022-09-22T05:50:11.876Z,6.48
2022-09-22T05:52:39.385Z,6.32
2022-09-22T05:55:07.039Z,6.48
2022-09-22T05:57:34.314Z,6.31
2022-09-22T06:00:00.999Z,6.44
2022-09-22T06:02:27.642Z,6.33
2022-09-22T06:04:54.307Z,6.54
2022-09-22T06:07:21.746Z,6.84
2022-09-22T06:09:48.961Z,6.87
2022-09-22T06:12:18.979Z,7.33
2022-09-22T06:14:45.513Z,7.47
2022-09-22T06:17:12.466Z,7.41
2022-09-22T06:19:39.703Z,7.33
2022-09-22T06:22:07.842Z,7.29
2022-09-22T06:24:34.422Z,7.31
2022-09-22T06:27:00.919Z,7.27
2022-09-22T06:29:28.440Z,7.26
2022-09-22T06:31:55.022Z,7.43
2022-09-22T06:34:23.167Z,7.49
2022-09-22T06:36:50.146Z,7.53
2022-09-22T06:39:16.748Z,7.63
2022-09-22T06:41:44.768Z,7.44
2022-09-22T06:44:13.078Z,7.79
2022-09-22T06:46:39.645Z,7.84
2022-09-22T06:49:06.164Z,7.69
2022-09-22T06:51:35.266Z,8.08
2022-09-22T06:54:05.334Z,7.93
2022-09-22T06:56:42.955Z,8.18
2022-09-22T06:59:13.591Z,8.17
2022-09-22T07:01:42.007Z,8.31
2022-09-22T07:04:09.350Z,8.43
2022-09-22T07:06:37.341Z,8.66
2022-09-22T07:09:05.475Z,8.87
2022-09-22T07:11:34.275Z,9.12
2022-09-22T07:14:04.138Z,9.25
2022-09-22T07:16:30.952Z,9.78
2022-09-22T07:19:00.867Z,9.94
2022-09-22T07:21:35.541Z,10.12
2022-09-22T07:24:02.906Z,10.30
2022-09-22T07:26:32.732Z,10.77
2022-09-22T07:29:06.249Z,11.15
2022-09-22T07:31:34.713Z,11.53
2022-09-22T07:34:01.635Z,11.75
2022-09-22T07:36:30.529Z,11.79
2022-09-22T07:39:03.135Z,12.25
2022-09-22T07:41:31.701Z,12.71
2022-09-22T07:44:22.786Z,13.09
2022-09-22T07:46:49.671Z,13.43
2022-09-22T07:49:19.517Z,13.81
2022-09-22T07:51:46.373Z,14.07
2022-09-22T07:54:13.233Z,14.53
2022-09-22T07:56:42.614Z,14.96
2022-09-22T07:59:11.877Z,15.43
2022-09-22T08:01:44.323Z,15.94
2022-09-22T08:04:15.144Z,16.20
2022-09-22T08:06:44.806Z,16.52
2022-09-22T08:09:12.654Z,17.06
2022-09-22T08:11:40.014Z,17.28
2022-09-22T08:14:11.048Z,17.84
2022-09-22T08:16:41.086Z,17.96
2022-09-22T08:19:12.476Z,18.62
2022-09-22T08:21:48.076Z,18.99
2022-09-22T08:24:21.242Z,19.44
2022-09-22T08:26:50.629Z,20.01
2022-09-22T08:29:17.296Z,20.43
2022-09-22T08:31:46.970Z,20.67
2022-09-22T08:34:16.340Z,21.13
2022-09-22T08:36:46.643Z,21.48
2022-09-22T08:39:14.025Z,21.69
2022-09-22T08:42:08.417Z,22.12
2022-09-22T08:45:07.164Z,22.17
2022-09-22T08:48:07.428Z,22.09
2022-09-22T08:51:14.395Z,22.34
2022-09-22T08:53:47.816Z,22.82
2022-09-22T08:56:55.164Z,23.23
2022-09-22T08:59:23.645Z,23.23
2022-09-22T09:02:20.830Z,23.39
2022-09-22T09:05:18.479Z,23.63
2022-09-22T09:08:00.280Z,24.13
2022-09-22T09:10:45.336Z,24.42
2022-09-22T09:13:45.982Z,24.47
2022-09-22T09:16:27.835Z,24.36
2022-09-22T09:19:04.189Z,24.28
2022-09-22T09:21:37.870Z,23.93
2022-09-22T09:27:00.943Z,24.30
2022-09-22T09:29:34.132Z,24.70
2022-09-22T09:32:04.096Z,24.64
2022-09-22T09:34:30.704Z,24.28
2022-09-22T09:37:12.530Z,24.28
2022-09-22T09:39:41.853Z,24.51
2022-09-22T09:42:34.880Z,24.76
2022-09-22T09:45:03.234Z,24.60
2022-09-22T09:47:50.297Z,24.05
2022-09-22T09:50:16.917Z,24.21
2022-09-22T09:52:44.875Z,23.83
2022-09-22T09:55:27.281Z,24.15
2022-09-22T09:58:36.733Z,24.65
2022-09-22T10:01:04.420Z,25.51
2022-09-22T10:03:34.922Z,25.85
2022-09-22T10:06:10.292Z,25.75
2022-09-22T10:08:49.331Z,25.24
2022-09-22T10:11:31.334Z,25.25
2022-09-22T10:13:58.618Z,25.81
2022-09-22T10:16:28.764Z,26.32
2022-09-22T10:18:58.344Z,26.54
2022-09-22T10:21:26.721Z,26.95
2022-09-22T10:23:58.394Z,27.30
2022-09-22T10:26:26.728Z,27.42
2022-09-22T10:29:18.959Z,27.46
2022-09-22T10:32:05.343Z,27.41
2022-09-22T10:34:51.793Z,27.73
2022-09-22T10:37:25.446Z,27.58
2022-09-22T10:39:54.413Z,27.18
2022-09-22T10:42:43.497Z,27.50
2022-09-22T10:45:14.073Z,27.93
2022-09-22T10:48:11.742Z,27.92
2022-09-22T10:50:44.052Z,28.51
2022-09-22T10:53:20.772Z,29.06
2022-09-22T10:56:04.125Z,29.47
2022-09-22T10:58:49.099Z,29.64
2022-09-22T11:01:33.688Z,29.81
2022-09-22T11:04:12.330Z,30.05
2022-09-22T11:07:02.574Z,30.04
2022-09-22T11:10:00.224Z,29.44
2022-09-22T11:12:35.747Z,28.42
2022-09-22T11:15:11.308Z,28.01
2022-09-22T11:17:46.790Z,28.24
2022-09-22T11:20:25.184Z,28.25
2022-09-22T11:23:16.964Z,28.19
2022-09-22T11:25:50.639Z,27.26
2022-09-22T11:28:39.596Z,27.46
2022-09-22T11:31:06.484Z,28.25
2022-09-22T11:33:41.832Z,29.02
2022-09-22T11:36:42.212Z,29.57
2022-09-22T11:39:47.055Z,29.89
2022-09-22T11:42:25.833Z,30.31
2022-09-22T11:45:14.283Z,30.35
2022-09-22T11:47:49.765Z,30.23
2022-09-22T11:50:25.218Z,29.43
2022-09-22T11:53:10.617Z,29.58
2022-09-22T11:56:09.193Z,30.02
2022-09-22T11:58:41.216Z,29.85
2022-09-22T12:01:22.018Z,29.91
2022-09-22T12:04:00.656Z,30.37
2022-09-22T12:06:31.895Z,30.90
2022-09-22T12:09:04.490Z,31.39
2022-09-22T12:11:35.860Z,31.61
2022-09-22T12:14:03.705Z,31.24
2022-09-22T12:16:41.934Z,30.87
2022-09-22T12:19:25.347Z,30.33
2022-09-22T12:22:19.482Z,30.68
2022-09-22T12:24:47.161Z,31.03
2022-09-22T12:27:27.780Z,31.25
2022-09-22T12:29:57.967Z,31.59
2022-09-22T12:32:33.030Z,31.85
2022-09-22T12:35:00.617Z,31.76
2022-09-22T12:37:34.773Z,31.75
2022-09-22T12:40:23.489Z,30.86
2022-09-22T12:42:53.251Z,29.56
2022-09-22T12:45:40.898Z,29.21
2022-09-22T12:48:14.000Z,30.03
2022-09-22T12:50:43.551Z,30.27
2022-09-22T12:53:21.795Z,30.48
2022-09-22T12:55:55.693Z,30.83
2022-09-22T12:58:22.493Z,30.72
2022-09-22T13:00:57.239Z,30.53
2022-09-22T13:03:26.998Z,30.06
2022-09-22T13:06:01.043Z,30.02
2022-09-22T13:08:30.388Z,30.27
2022-09-22T13:11:03.951Z,30.63
2022-09-22T13:13:39.377Z,31.16
2022-09-22T13:16:14.990Z,31.08
2022-09-22T13:18:51.020Z,31.35
2022-09-22T13:21:18.938Z,31.56
2022-09-22T13:23:51.652Z,30.90
2022-09-22T13:26:36.511Z,30.40
2022-09-22T13:29:17.921Z,29.96
2022-09-22T13:31:52.973Z,29.82
2022-09-22T13:34:31.191Z,30.12
2022-09-22T13:37:19.655Z,30.65
2022-09-22T13:39:49.960Z,30.90
2022-09-22T13:42:32.681Z,29.86
2022-09-22T13:45:27.493Z,29.58
2022-09-22T13:48:17.104Z,29.42
2022-09-22T13:50:56.156Z,29.79
2022-09-22T13:53:23.129Z,30.10
2022-09-22T13:55:51.901Z,30.20
2022-09-22T13:58:28.017Z,30.38
2022-09-22T14:01:15.570Z,30.60
2022-09-22T14:03:43.170Z,30.38
2022-09-22T14:06:14.109Z,30.62
2022-09-22T14:08:42.691Z,30.79
2022-09-22T14:11:18.321Z,30.85
2022-09-22T14:13:56.675Z,30.78
2022-09-22T14:16:29.026Z,29.77
2022-09-22T14:19:04.654Z,29.40
2022-09-22T14:21:40.223Z,29.57
2022-09-22T14:24:07.142Z,29.79
2022-09-22T14:26:38.880Z,29.73
2022-09-22T14:29:15.489Z,29.94
2022-09-22T14:31:46.635Z,30.14
2022-09-22T14:34:23.229Z,30.23
2022-09-22T14:36:52.034Z,30.51
2022-09-22T14:39:31.289Z,30.61
2022-09-22T14:42:06.219Z,30.60
2022-09-22T14:44:44.010Z,30.33
2022-09-22T14:47:26.114Z,30.09
2022-09-22T14:50:07.977Z,29.74
2022-09-22T14:52:39.474Z,28.76
2022-09-22T14:56:47.952Z,28.01
2022-09-22T14:59:36.645Z,27.77
2022-09-22T15:02:32.763Z,27.89
2022-09-22T15:05:13.275Z,28.00
2022-09-22T15:07:53.352Z,27.95
2022-09-22T15:11:05.038Z,28.18
2022-09-22T15:13:39.745Z,28.51
2022-09-22T15:16:37.404Z,28.46
2022-09-22T15:19:05.116Z,28.27
2022-09-22T15:21:37.550Z,27.87
2022-09-22T15:24:26.792Z,27.39
2022-09-22T15:26:57.037Z,27.24
2022-09-22T15:32:16.980Z,26.56
2022-09-22T15:34:44.862Z,26.43
2022-09-22T15:37:23.979Z,26.01
2022-09-22T15:39:51.533Z,25.57
2022-09-22T15:42:22.269Z,25.29
2022-09-22T15:44:52.338Z,24.91
2022-09-22T15:47:19.636Z,24.69
2022-09-22T15:49:55.310Z,24.65
2022-09-22T15:52:32.824Z,24.34
2022-09-22T15:55:17.740Z,24.30
2022-09-22T15:57:47.763Z,24.31
2022-09-22T16:00:19.525Z,24.23
2022-09-22T16:02:49.992Z,23.93
2022-09-22T16:05:21.793Z,23.75
2022-09-22T16:07:51.871Z,23.58
2022-09-22T16:10:27.299Z,23.45
2022-09-22T16:12:56.196Z,23.18
2022-09-22T16:15:23.202Z,23.01
2022-09-22T16:17:49.828Z,22.75
2022-09-22T16:20:17.353Z,22.63
2022-09-22T16:22:45.549Z,22.57
2022-09-22T16:25:12.971Z,22.60
2022-09-22T16:27:43.833Z,22.37
2022-09-22T16:30:13.501Z,22.47
2022-09-22T16:32:43.553Z,22.14
2022-09-22T16:35:13.360Z,22.15
2022-09-22T16:37:43.040Z,22.03
2022-09-22T16:40:13.092Z,21.76
2022-09-22T16:42:42.670Z,21.90
2022-09-22T16:45:11.867Z,21.92
2022-09-22T16:47:38.396Z,21.83
2022-09-22T16:50:05.384Z,21.73
2022-09-22T16:52:32.284Z,21.82
2022-09-22T16:55:02.412Z,21.70
2022-09-22T16:57:28.959Z,21.78
2022-09-22T16:59:56.990Z,21.78
2022-09-22T17:02:24.073Z,21.68
2022-09-22T17:04:50.644Z,21.71
2022-09-22T17:07:17.587Z,21.79
2022-09-22T17:09:44.109Z,21.80
2022-09-22T17:12:10.985Z,21.82
2022-09-22T17:14:37.544Z,21.69
2022-09-22T17:17:07.431Z,21.72
2022-09-22T17:19:33.996Z,21.61
2022-09-22T17:22:00.622Z,21.63
2022-09-22T17:24:27.699Z,21.57
2022-09-22T17:26:56.684Z,21.33
2022-09-22T17:29:32.655Z,21.28
2022-09-22T17:32:04.595Z,21.13
2022-09-22T17:34:33.212Z,20.91
2022-09-22T17:37:01.005Z,20.57
2022-09-22T17:39:28.962Z,20.30
2022-09-22T17:41:56.014Z,20.22
2022-09-22T17:44:23.624Z,20.02
2022-09-22T17:47:14.282Z,19.79
2022-09-22T17:49:59.636Z,19.67
2022-09-22T17:52:29.211Z,19.62
2022-09-22T17:55:12.687Z,19.64
2022-09-22T17:57:45.128Z,19.60
2022-09-22T18:00:19.507Z,19.44
2022-09-22T18:02:46.763Z,19.27
2022-09-22T18:05:16.342Z,19.01
2022-09-22T18:07:47.174Z,18.93
2022-09-22T18:10:17.015Z,18.83
2022-09-22T18:12:46.759Z,18.75
2022-09-22T18:15:17.792Z,18.58
2022-09-22T18:17:44.546Z,18.41
2022-09-22T18:20:20.762Z,18.31
2022-09-22T18:22:47.931Z,18.32
2022-09-22T18:25:19.505Z,18.27
2022-09-22T18:27:48.549Z,18.17
2022-09-22T18:30:16.972Z,18.10
2022-09-22T18:32:47.508Z,17.98
2022-09-22T18:35:14.311Z,17.89
2022-09-22T18:37:41.236Z,17.82
2022-09-22T18:40:09.487Z,17.77
2022-09-22T18:42:36.736Z,17.58
2022-09-22T18:48:33.351Z,17.46
2022-09-22T18:51:06.668Z,17.53
2022-09-22T18:53:33.237Z,17.22
2022-09-22T18:56:16.914Z,17.31
2022-09-22T18:58:46.732Z,17.30
2022-09-22T19:01:18.495Z,17.08
2022-09-22T19:03:48.768Z,17.17
2022-09-22T19:06:16.154Z,16.95
2022-09-22T19:08:46.335Z,17.06
2022-09-22T19:11:17.656Z,17.00
2022-09-22T19:13:48.197Z,16.93
2022-09-22T19:16:18.094Z,16.74
2022-09-22T19:18:50.150Z,16.85
2022-09-22T19:21:16.867Z,16.78
2022-09-22T19:23:45.341Z,16.58
2022-09-22T19:26:15.049Z,16.65
2022-09-22T19:28:41.755Z,16.60
2022-09-22T19:31:08.341Z,16.34
2022-09-22T19:33:35.010Z,16.30
2022-09-22T19:36:01.903Z,16.41
2022-09-22T19:38:28.420Z,16.22
2022-09-22T19:40:56.310Z,16.30
2022-09-22T19:43:24.515Z,16.21
2022-09-22T19:45:52.274Z,15.95
2022-09-22T19:48:19.536Z,15.98
2022-09-22T19:50:48.613Z,15.82
2022-09-22T19:53:15.222Z,15.74
2022-09-22T19:55:41.967Z,15.66
2022-09-22T19:58:08.477Z,15.57
2022-09-22T20:00:36.247Z,15.54
2022-09-22T20:03:21.121Z,15.34
2022-09-22T20:05:48.794Z,15.29
2022-09-22T20:08:21.531Z,15.34
2022-09-22T20:11:01.741Z,15.16
2022-09-22T20:13:56.289Z,15.05
2022-09-22T20:16:22.837Z,14.84
2022-09-22T20:18:49.348Z,14.83
2022-09-22T20:21:16.101Z,14.63
2022-09-22T20:23:49.911Z,14.68
2022-09-22T20:26:16.425Z,14.57
2022-09-22T20:28:45.117Z,14.55
2022-09-22T20:31:12.445Z,14.29
2022-09-22T20:33:40.794Z,14.25
2022-09-22T20:36:11.208Z,14.26
2022-09-22T20:38:38.423Z,14.02
2022-09-22T20:41:05.045Z,14.05
2022-09-22T20:43:31.595Z,14.01
2022-09-22T20:46:03.668Z,14.04
2022-09-22T20:48:31.413Z,13.91
2022-09-22T20:50:59.071Z,13.89
2022-09-22T20:53:26.165Z,13.69
2022-09-22T20:56:10.321Z,13.74
2022-09-22T20:58:42.895Z,13.77
2022-09-22T21:01:12.223Z,13.69
2022-09-22T21:03:39.067Z,13.57
2022-09-22T21:06:08.008Z,13.41
2022-09-22T21:08:57.293Z,13.65
2022-09-22T21:11:24.676Z,13.60
2022-09-22T21:13:53.212Z,13.56
2022-09-22T21:16:19.895Z,13.50
2022-09-22T21:18:51.808Z,13.40
2022-09-22T21:21:20.556Z,13.38
2022-09-22T21:23:50.418Z,13.24
2022-09-22T21:26:20.774Z,13.17
2022-09-22T21:28:51.895Z,13.09
2022-09-22T21:31:23.024Z,12.97
2022-09-22T21:33:49.794Z,12.79
2022-09-22T21:36:19.659Z,12.92
2022-09-22T21:38:50.334Z,12.87
2022-09-22T21:41:21.990Z,12.83
2022-09-22T21:43:51.489Z,12.79
2022-09-22T21:46:23.355Z,12.82
2022-09-22T21:48:50.005Z,13.02
2022-09-22T21:51:20.202Z,12.97
2022-09-22T21:53:52.215Z,12.80
2022-09-22T21:56:25.239Z,13.06
2022-09-22T21:58:54.084Z,13.00
2022-09-22T22:01:26.205Z,12.81
2022-09-22T22:03:54.997Z,12.74
2022-09-22T22:06:34.229Z,12.78
2022-09-22T22:09:19.814Z,12.80
2022-09-22T22:11:55.498Z,12.74
2022-09-22T22:14:23.926Z,12.56
2022-09-22T22:16:53.801Z,12.56
2022-09-22T22:19:25.931Z,12.52
2022-09-22T22:21:53.890Z,12.62
2022-09-22T22:24:27.269Z,12.40
2022-09-22T22:26:57.137Z,12.52
2022-09-22T22:29:26.703Z,12.56
2022-09-22T22:31:53.529Z,12.61
2022-09-22T22:34:27.569Z,12.64
2022-09-22T22:36:55.236Z,12.56
2022-09-22T22:39:22.029Z,12.44
2022-09-22T22:41:55.272Z,12.17
2022-09-22T22:44:24.664Z,12.02
2022-09-22T22:46:54.017Z,12.21
2022-09-22T22:49:22.412Z,12.23
2022-09-22T22:51:52.135Z,12.27
2022-09-22T22:54:18.637Z,12.45
2022-09-22T22:56:50.203Z,12.27
2022-09-22T22:59:18.149Z,12.07
2022-09-22T23:01:44.757Z,11.99
2022-09-22T23:04:12.143Z,12.14
2022-09-22T23:06:41.759Z,11.89
2022-09-22T23:09:11.794Z,11.76
2022-09-22T23:11:39.978Z,11.70
2022-09-22T23:14:08.565Z,11.43
2022-09-22T23:16:38.235Z,11.41
2022-09-22T23:19:08.462Z,11.31
2022-09-22T23:21:36.208Z,11.07
2022-09-22T23:24:03.953Z,11.12
2022-09-22T23:26:32.044Z,11.53
2022-09-22T23:28:59.002Z,11.52
2022-09-22T23:31:26.128Z,11.64
2022-09-22T23:33:57.584Z,11.85
2022-09-22T23:36:27.919Z,11.79
2022-09-22T23:39:04.184Z,11.73
2022-09-22T23:41:35.769Z,11.95
2022-09-22T23:44:03.657Z,12.12
2022-09-22T23:46:30.682Z,12.14
2022-09-22T23:48:57.811Z,12.25
2022-09-22T23:51:27.967Z,12.21
2022-09-22T23:53:58.075Z,12.46
2022-09-22T23:56:27.421Z,12.66
2022-09-22T23:58:56.463Z,12.67
